Time;durP1;ratioP1;P1;durP2;ratioP2;P2;SDS_P1;SDS_P2;PMS_P1;PMS_P2;Temp;Humidity;BMP_temperature;BMP_pressure;BME280_temperature;BME280_humidity;BME280_pressure;Samples;Min_cycle;Max_cycle;Signal;HPM_P1;HPM_P2
2022/01/22 00:00:24;;;;;;;17.60;2.70;;;6.10;99.90;;;;;;4782496;29;20097;-68
2022/01/22 00:02:50;;;;;;;18.90;2.50;;;6.10;99.90;;;;;;4782614;29;20488;-68
2022/01/22 00:05:17;;;;;;;19.65;2.70;;;6.10;99.90;;;;;;4782878;29;20043;-68
2022/01/22 00:07:43;;;;;;;18.00;2.65;;;6.10;99.90;;;;;;4783055;29;20130;-67
2022/01/22 00:10:15;;;;;;;17.45;2.30;;;6.10;99.90;;;;;;4783582;29;20135;-68
2022/01/22 00:15:10;;;;;;;22.63;3.05;;;6.10;99.90;;;;;;4782220;29;20138;-67
2022/01/22 00:17:36;;;;;;;17.42;2.65;;;6.20;99.90;;;;;;4782279;29;20047;-68
2022/01/22 00:20:04;;;;;;;17.63;2.65;;;6.10;99.90;;;;;;4783280;29;20087;-67
2022/01/22 00:22:32;;;;;;;22.85;2.92;;;6.10;99.90;;;;;;4783018;29;20043;-68
2022/01/22 00:25:00;;;;;;;17.27;2.55;;;6.20;99.90;;;;;;4783583;29;20047;-67
2022/01/22 00:27:27;;;;;;;16.35;2.30;;;6.10;99.90;;;;;;4782609;29;20062;-68
2022/01/22 00:29:53;;;;;;;10.43;2.22;;;6.10;99.90;;;;;;4784154;29;20043;-67
2022/01/22 00:32:19;;;;;;;14.23;2.67;;;6.20;99.90;;;;;;4781868;29;20126;-68
2022/01/22 00:34:45;;;;;;;18.40;2.83;;;6.20;99.90;;;;;;4781386;29;20059;-68
2022/01/22 00:37:11;;;;;;;20.00;2.55;;;6.20;99.90;;;;;;4781884;29;20040;-67
2022/01/22 00:39:37;;;;;;;19.02;2.30;;;6.30;99.90;;;;;;4787451;29;20039;-67
2022/01/22 00:42:09;;;;;;;19.65;2.72;;;6.20;99.90;;;;;;4787596;29;20378;-67
2022/01/22 00:44:34;;;;;;;17.05;2.28;;;6.20;99.90;;;;;;4787271;29;20031;-68
2022/01/22 00:47:02;;;;;;;20.45;2.53;;;6.30;99.90;;;;;;4786214;29;20463;-68
2022/01/22 00:49:29;;;;;;;18.17;3.00;;;6.20;99.90;;;;;;4783769;29;20065;-68
2022/01/22 00:51:55;;;;;;;17.92;2.45;;;6.20;99.90;;;;;;4782808;29;20070;-68
2022/01/22 00:54:21;;;;;;;18.42;2.88;;;6.20;99.90;;;;;;4783680;29;20055;-68
2022/01/22 00:56:46;;;;;;;17.38;2.75;;;6.30;99.90;;;;;;4782814;29;20070;-67
2022/01/22 00:59:12;;;;;;;19.50;2.42;;;6.20;99.90;;;;;;4768469;29;20043;-67
2022/01/22 01:01:38;;;;;;;12.93;2.35;;;6.30;99.90;;;;;;4785394;29;20079;-67
2022/01/22 01:04:04;;;;;;;20.45;2.10;;;6.30;99.90;;;;;;4783553;29;20051;-67
2022/01/22 01:06:30;;;;;;;22.27;2.40;;;6.30;99.90;;;;;;4784292;29;20051;-68
2022/01/22 01:08:58;;;;;;;13.13;2.47;;;6.30;99.90;;;;;;4784637;29;20054;-68
2022/01/22 01:11:26;;;;;;;15.77;2.58;;;6.30;99.90;;;;;;4783558;29;20385;-68
2022/01/22 01:13:57;;;;;;;12.77;2.42;;;6.30;99.90;;;;;;4783536;29;20059;-67
2022/01/22 01:33:05;;;;;;;17.95;2.53;;;6.30;99.90;;;;;;4785001;29;20084;-67
2022/01/22 01:35:33;;;;;;;17.27;2.00;;;6.30;99.90;;;;;;4783282;29;20059;-67
2022/01/22 01:38:01;;;;;;;18.50;2.63;;;6.40;99.90;;;;;;4785097;29;20119;-67
2022/01/22 01:40:28;;;;;;;20.55;2.55;;;6.40;99.90;;;;;;4784184;29;20458;-67
2022/01/22 01:45:23;;;;;;;13.30;2.92;;;6.30;99.90;;;;;;4784856;29;20047;-67
2022/01/22 01:47:54;;;;;;;16.45;2.42;;;6.30;99.90;;;;;;4783218;29;20101;-67
2022/01/22 01:50:20;;;;;;;11.85;2.88;;;6.60;99.90;;;;;;4783576;29;20035;-67
2022/01/22 01:53:03;;;;;;;10.15;1.88;;;6.40;99.90;;;;;;4783489;29;20405;-68
2022/01/22 01:55:49;;;;;;;12.57;2.22;;;6.40;99.90;;;;;;4783219;29;20074;-67
2022/01/22 01:58:17;;;;;;;18.10;2.80;;;6.60;99.90;;;;;;4783096;29;20055;-68
2022/01/22 02:00:43;;;;;;;10.65;2.28;;;6.50;99.90;;;;;;4783327;29;20430;-68
2022/01/22 02:03:12;;;;;;;12.52;1.88;;;6.40;99.90;;;;;;4784503;29;20062;-67
2022/01/22 02:05:38;;;;;;;8.27;2.00;;;6.40;99.90;;;;;;4784365;29;20523;-67
2022/01/22 02:08:05;;;;;;;13.13;2.00;;;6.40;99.90;;;;;;4784389;29;20047;-67
2022/01/22 02:10:34;;;;;;;19.48;2.70;;;6.40;99.90;;;;;;4784312;29;20571;-67
2022/01/22 02:23:58;;;;;;;11.00;2.40;;;6.30;99.90;;;;;;4782918;29;20413;-67
2022/01/22 02:26:24;;;;;;;12.82;2.30;;;6.30;99.90;;;;;;4782580;29;20061;-67
2022/01/22 02:28:52;;;;;;;18.13;2.33;;;6.30;99.90;;;;;;4784280;29;20047;-67
2022/01/22 02:37:01;;;;;;;11.70;2.08;;;6.20;99.90;;;;;;4781285;29;20143;-68
2022/01/22 02:39:41;;;;;;;16.58;1.80;;;6.20;99.90;;;;;;4766410;29;20394;-67
2022/01/22 02:42:06;;;;;;;10.45;2.15;;;6.20;99.90;;;;;;4782721;29;20470;-67
2022/01/22 02:44:43;;;;;;;22.23;3.58;;;6.20;99.90;;;;;;4783057;29;20050;-67
2022/01/22 02:47:09;;;;;;;11.75;2.13;;;6.20;99.90;;;;;;4782928;29;20089;-67
2022/01/22 02:49:35;;;;;;;13.98;1.77;;;6.10;99.90;;;;;;4781350;29;20082;-68
2022/01/22 02:52:03;;;;;;;15.55;2.33;;;6.20;99.90;;;;;;4780785;29;20051;-67
2022/01/22 02:54:29;;;;;;;11.40;1.90;;;6.10;99.90;;;;;;4781549;29;20039;-67
2022/01/22 02:56:55;;;;;;;10.35;1.85;;;6.10;99.90;;;;;;4782766;29;20476;-68
2022/01/22 02:59:23;;;;;;;14.65;1.80;;;6.10;99.90;;;;;;4780087;29;20039;-68
2022/01/22 03:01:49;;;;;;;15.05;2.00;;;6.20;99.90;;;;;;4780861;29;20051;-67
2022/01/22 03:04:16;;;;;;;13.50;2.35;;;6.20;99.90;;;;;;4780164;29;20055;-67
2022/01/22 03:06:43;;;;;;;9.88;1.60;;;6.20;99.90;;;;;;4781350;29;20144;-67
2022/01/22 03:09:11;;;;;;;12.20;1.80;;;6.10;99.90;;;;;;4779371;29;20143;-67
2022/01/22 03:11:47;;;;;;;13.68;2.03;;;6.10;99.90;;;;;;4780637;29;20424;-68
2022/01/22 03:19:33;;;;;;;9.85;1.60;;;6.20;99.90;;;;;;4781730;29;20047;-67
2022/01/22 03:22:14;;;;;;;8.77;1.35;;;6.20;99.90;;;;;;4782475;29;20043;-67
2022/01/22 03:27:25;;;;;;;12.85;1.73;;;6.10;99.90;;;;;;4781065;29;20077;-68
2022/01/22 03:29:51;;;;;;;12.52;2.20;;;6.10;99.90;;;;;;4780327;29;20071;-67
2022/01/22 03:32:19;;;;;;;13.85;2.10;;;6.10;99.90;;;;;;4782498;29;20057;-67
2022/01/22 03:35:34;;;;;;;15.48;2.55;;;6.10;99.90;;;;;;4781533;29;20051;-67
2022/01/22 03:37:35;;;;;;;9.07;1.85;;;6.10;99.90;;;;;;4771496;29;20521;-67
2022/01/22 03:40:01;;;;;;;14.25;1.70;;;6.10;99.90;;;;;;4781836;29;20043;-67
2022/01/22 03:42:27;;;;;;;13.93;1.75;;;6.10;99.90;;;;;;4783229;29;20122;-67
2022/01/22 03:44:52;;;;;;;10.85;2.05;;;6.10;99.90;;;;;;4781528;29;20123;-67
2022/01/22 03:47:18;;;;;;;12.00;1.75;;;6.10;99.90;;;;;;4779130;29;20060;-67
2022/01/22 03:49:44;;;;;;;14.25;1.60;;;6.20;99.90;;;;;;4781710;29;20473;-67
2022/01/22 03:52:10;;;;;;;6.90;1.60;;;6.10;99.90;;;;;;4778843;29;20055;-68
2022/01/22 03:54:36;;;;;;;8.48;1.90;;;6.10;99.90;;;;;;4780252;29;20059;-67
2022/01/22 03:57:02;;;;;;;9.80;2.10;;;6.10;99.90;;;;;;4781527;29;20047;-68
2022/01/22 03:59:30;;;;;;;11.05;2.13;;;6.10;99.90;;;;;;4781453;29;20382;-67
2022/01/22 04:04:44;;;;;;;10.88;1.75;;;6.10;99.90;;;;;;4782213;29;20063;-67
2022/01/22 04:08:07;;;;;;;8.98;1.40;;;6.10;99.90;;;;;;4780598;29;20059;-67
2022/01/22 04:10:05;;;;;;;9.13;1.85;;;6.10;99.90;;;;;;4776438;29;20055;-67
2022/01/22 04:12:44;;;;;;;11.40;2.05;;;6.10;99.90;;;;;;4782434;29;20082;-67
2022/01/22 04:15:12;;;;;;;7.07;2.08;;;6.10;99.90;;;;;;4784871;29;20124;-67
2022/01/22 04:26:01;;;;;;;8.88;2.03;;;6.10;99.90;;;;;;4786232;29;20462;-67
2022/01/22 04:28:27;;;;;;;15.93;2.40;;;6.20;99.90;;;;;;4784282;29;20047;-68
2022/01/22 04:30:53;;;;;;;7.65;1.73;;;6.10;99.90;;;;;;4784425;29;20042;-67
2022/01/22 04:33:18;;;;;;;12.13;2.25;;;6.10;99.90;;;;;;4783076;29;20051;-67
2022/01/22 04:35:44;;;;;;;9.25;2.15;;;6.10;99.90;;;;;;4785263;29;20050;-67
2022/01/22 04:38:10;;;;;;;6.90;1.77;;;6.10;99.90;;;;;;4784192;29;20058;-67
2022/01/22 04:40:36;;;;;;;8.35;2.15;;;6.10;99.90;;;;;;4784482;29;20051;-67
2022/01/22 04:43:03;;;;;;;5.50;1.33;;;6.10;99.90;;;;;;4785343;29;20104;-67
2022/01/22 04:45:49;;;;;;;5.70;1.80;;;6.10;99.90;;;;;;4784565;29;20439;-67
2022/01/22 04:48:41;;;;;;;6.93;1.60;;;6.40;99.90;;;;;;4784762;29;20074;-67
2022/01/22 04:56:36;;;;;;;7.35;1.58;;;6.10;99.90;;;;;;4785040;29;20056;-67
2022/01/22 04:59:02;;;;;;;6.93;2.00;;;6.10;99.90;;;;;;4784296;29;20043;-67
2022/01/22 05:01:29;;;;;;;6.28;1.85;;;6.10;99.90;;;;;;4784169;29;20039;-68
2022/01/22 05:03:54;;;;;;;5.43;1.85;;;6.10;99.90;;;;;;4784011;29;20051;-67
2022/01/22 05:06:20;;;;;;;5.13;1.67;;;6.30;99.90;;;;;;4769790;29;20051;-67
2022/01/22 05:08:46;;;;;;;8.05;2.00;;;6.10;99.90;;;;;;4784983;29;20047;-67
2022/01/22 05:11:12;;;;;;;8.63;2.25;;;6.20;99.90;;;;;;4785305;29;20082;-67
2022/01/22 05:13:37;;;;;;;6.03;1.80;;;6.20;99.90;;;;;;4784865;29;20405;-68
2022/01/22 05:16:03;;;;;;;5.32;1.83;;;6.10;99.90;;;;;;4784889;29;20047;-67
2022/01/22 05:18:29;;;;;;;7.93;1.80;;;6.10;99.90;;;;;;4785738;29;20547;-67
2022/01/22 05:21:06;;;;;;;5.18;1.90;;;6.10;99.90;;;;;;4784054;29;20043;-67
2022/01/22 05:23:33;;;;;;;3.97;1.45;;;6.20;99.90;;;;;;4785092;29;20381;-67
2022/01/22 05:26:02;;;;;;;6.55;1.92;;;6.10;99.90;;;;;;4783039;29;20555;-67
2022/01/22 05:37:03;;;;;;;5.82;1.73;;;6.20;99.90;;;;;;4784783;29;20085;-67
2022/01/22 05:39:31;;;;;;;6.95;1.83;;;6.10;99.90;;;;;;4782514;29;20044;-67
2022/01/22 05:41:58;;;;;;;4.50;1.98;;;6.20;99.90;;;;;;4784369;29;21044;-68
2022/01/22 05:44:25;;;;;;;8.07;2.05;;;6.20;99.90;;;;;;4784063;29;20129;-67
2022/01/22 05:46:52;;;;;;;7.70;2.22;;;6.20;99.90;;;;;;4782584;29;20046;-67
2022/01/22 05:49:22;;;;;;;7.05;2.00;;;6.30;99.90;;;;;;4783173;29;20080;-67
2022/01/22 05:51:51;;;;;;;9.60;2.17;;;6.20;99.90;;;;;;4797905;29;20059;-67
2022/01/22 05:59:40;;;;;;;6.05;2.10;;;6.20;99.90;;;;;;4782929;29;20176;-67
2022/01/22 06:02:11;;;;;;;10.98;2.50;;;6.20;99.90;;;;;;4782599;29;20055;-67
2022/01/22 06:04:38;;;;;;;9.50;2.80;;;6.10;99.90;;;;;;4784115;29;20083;-67
2022/01/22 06:07:05;;;;;;;7.15;2.10;;;6.10;99.90;;;;;;4783732;29;20106;-67
2022/01/22 06:09:32;;;;;;;9.27;2.50;;;6.20;99.90;;;;;;4784412;29;20051;-67
2022/01/22 06:12:14;;;;;;;9.88;2.47;;;6.20;99.90;;;;;;4783449;29;20592;-67
2022/01/22 06:14:41;;;;;;;7.97;2.20;;;6.10;99.90;;;;;;4769331;29;20113;-67
2022/01/22 06:17:07;;;;;;;5.10;1.50;;;6.10;99.90;;;;;;4783907;29;20043;-66
2022/01/22 06:19:32;;;;;;;3.53;1.42;;;6.10;99.90;;;;;;4784339;29;20041;-66
2022/01/22 06:21:58;;;;;;;10.18;1.70;;;6.10;99.90;;;;;;4782482;29;20100;-66
2022/01/22 06:24:24;;;;;;;5.25;1.90;;;6.10;99.90;;;;;;4781657;29;20047;-66
2022/01/22 06:26:52;;;;;;;4.20;1.98;;;6.10;99.90;;;;;;4782721;29;20489;-66
2022/01/22 06:29:18;;;;;;;4.90;1.23;;;6.10;99.90;;;;;;4784314;29;20066;-66
2022/01/22 06:31:44;;;;;;;6.55;1.70;;;6.10;99.90;;;;;;4784104;29;20124;-66
2022/01/22 06:34:09;;;;;;;5.40;1.30;;;6.10;99.90;;;;;;4767677;29;20035;-66
2022/01/22 06:36:35;;;;;;;7.90;2.10;;;6.10;99.90;;;;;;4782819;29;20702;-66
2022/01/22 06:39:17;;;;;;;6.40;2.10;;;6.10;99.90;;;;;;4783150;29;20097;-66
2022/01/22 06:41:46;;;;;;;7.22;2.05;;;6.10;99.90;;;;;;4782955;29;20039;-66
2022/01/22 06:44:24;;;;;;;9.07;2.25;;;6.10;99.90;;;;;;4783903;29;20074;-66
2022/01/22 06:46:53;;;;;;;6.15;2.50;;;6.10;99.90;;;;;;4783785;29;20122;-66
2022/01/22 06:49:20;;;;;;;8.77;2.83;;;6.10;99.90;;;;;;4783232;29;20058;-66
2022/01/22 06:51:47;;;;;;;10.27;2.30;;;6.10;99.90;;;;;;4784594;29;20051;-67
2022/01/22 06:54:14;;;;;;;10.40;2.55;;;6.20;99.90;;;;;;4782618;29;20152;-67
2022/01/22 06:56:41;;;;;;;8.13;2.80;;;6.10;99.90;;;;;;4783121;29;20046;-66
2022/01/22 06:59:11;;;;;;;7.78;2.97;;;6.10;99.90;;;;;;4781191;29;20039;-66
2022/01/22 07:01:37;;;;;;;8.48;2.90;;;6.10;99.90;;;;;;4781736;29;20071;-66
2022/01/22 07:04:03;;;;;;;6.22;2.72;;;6.10;99.90;;;;;;4782494;29;20070;-66
2022/01/22 07:06:29;;;;;;;7.85;2.65;;;6.10;99.90;;;;;;4783483;29;20051;-66
2022/01/22 07:08:55;;;;;;;7.45;2.60;;;6.20;99.90;;;;;;4781989;29;20444;-66
2022/01/22 07:11:20;;;;;;;5.93;3.08;;;6.80;99.90;;;;;;4783865;29;20421;-66
2022/01/22 07:13:47;;;;;;;6.80;2.45;;;6.10;99.90;;;;;;4780570;29;20098;-66
2022/01/22 07:16:13;;;;;;;5.43;2.53;;;6.10;99.90;;;;;;4779203;29;20058;-66
2022/01/22 07:18:39;;;;;;;8.35;2.75;;;6.10;99.90;;;;;;4780913;29;20469;-68
2022/01/22 07:21:23;;;;;;;10.18;2.17;;;6.10;99.90;;;;;;4781626;29;20096;-68
2022/01/22 07:26:16;;;;;;;6.18;2.05;;;6.10;99.90;;;;;;4781381;29;20083;-68
2022/01/22 07:28:42;;;;;;;4.63;1.60;;;6.10;99.90;;;;;;4780571;29;20045;-68
2022/01/22 07:31:09;;;;;;;5.93;1.90;;;6.10;99.90;;;;;;4781579;29;20055;-69
2022/01/22 07:33:35;;;;;;;5.90;1.77;;;6.10;99.90;;;;;;4782926;29;20043;-68
2022/01/22 07:36:02;;;;;;;6.18;1.75;;;6.10;99.90;;;;;;4781681;29;20104;-68
2022/01/22 07:38:28;;;;;;;7.35;1.90;;;6.10;99.90;;;;;;4783077;29;20146;-68
2022/01/22 07:40:54;;;;;;;7.07;2.00;;;6.10;99.90;;;;;;4782228;29;20126;-68
2022/01/22 07:43:19;;;;;;;6.45;2.00;;;6.10;99.90;;;;;;4782677;29;20043;-68
2022/01/22 07:45:45;;;;;;;9.05;1.80;;;6.10;99.90;;;;;;4780296;29;20153;-68
2022/01/22 07:48:11;;;;;;;8.32;1.83;;;6.10;99.90;;;;;;4783866;29;20533;-68
2022/01/22 07:50:37;;;;;;;5.47;1.50;;;6.20;99.90;;;;;;4785447;29;20071;-68
2022/01/22 07:53:03;;;;;;;5.25;1.77;;;6.10;99.90;;;;;;4785157;29;20412;-69
2022/01/22 07:55:30;;;;;;;5.15;1.50;;;6.10;99.90;;;;;;4782632;29;20043;-68
2022/01/22 07:57:56;;;;;;;6.07;2.50;;;6.10;99.90;;;;;;4786061;29;20043;-68
2022/01/22 08:00:21;;;;;;;9.82;2.30;;;6.10;99.90;;;;;;4784984;29;20043;-68
2022/01/22 08:02:48;;;;;;;5.88;1.90;;;6.10;99.90;;;;;;4786288;29;20477;-68
2022/01/22 08:05:14;;;;;;;7.80;2.20;;;6.10;99.90;;;;;;4786193;29;20046;-68
2022/01/22 08:07:44;;;;;;;7.50;1.83;;;6.10;99.90;;;;;;4783052;29;20055;-68
2022/01/22 08:10:10;;;;;;;10.68;1.92;;;6.10;99.90;;;;;;4785121;29;20056;-68
2022/01/22 08:12:37;;;;;;;4.53;1.70;;;6.10;99.90;;;;;;4784784;29;20086;-68
2022/01/22 08:15:08;;;;;;;6.20;1.80;;;6.40;99.90;;;;;;4784544;29;20051;-68
2022/01/22 08:17:34;;;;;;;10.00;2.35;;;6.10;99.90;;;;;;4783891;29;20631;-68
2022/01/22 08:20:00;;;;;;;3.30;2.00;;;6.10;99.90;;;;;;4785468;29;20086;-68
2022/01/22 08:22:26;;;;;;;5.68;1.67;;;6.20;99.90;;;;;;4786096;29;20081;-69
2022/01/22 08:24:54;;;;;;;3.67;1.60;;;6.20;99.90;;;;;;4786037;29;20040;-68
2022/01/22 08:29:46;;;;;;;3.97;2.00;;;6.20;99.90;;;;;;4786446;29;20071;-68
2022/01/22 08:37:28;;;;;;;7.38;2.58;;;6.20;99.90;;;;;;4785657;29;20104;-68
2022/01/22 08:39:54;;;;;;;12.10;2.42;;;6.20;99.90;;;;;;4785618;29;20039;-68
2022/01/22 08:42:21;;;;;;;9.60;2.90;;;6.20;99.90;;;;;;4784744;29;20065;-68
2022/01/22 08:44:47;;;;;;;9.25;2.72;;;6.20;99.90;;;;;;4785706;29;20046;-68
2022/01/22 08:47:14;;;;;;;10.05;2.78;;;6.20;99.90;;;;;;4783579;29;20040;-68
2022/01/22 08:49:40;;;;;;;9.98;2.40;;;6.20;99.90;;;;;;4783713;29;20059;-68
2022/01/22 08:52:14;;;;;;;7.90;2.47;;;6.20;99.90;;;;;;4784033;29;20058;-68
2022/01/22 08:54:41;;;;;;;8.63;2.78;;;6.20;99.90;;;;;;4784681;29;20101;-69
2022/01/22 08:57:06;;;;;;;12.85;3.28;;;6.20;99.90;;;;;;4782817;29;20057;-69
2022/01/22 08:59:32;;;;;;;14.20;3.30;;;6.40;99.90;;;;;;4781313;29;20039;-69
2022/01/22 09:01:59;;;;;;;9.02;2.28;;;6.30;99.90;;;;;;4784134;29;20051;-69
2022/01/22 09:04:26;;;;;;;8.30;2.72;;;6.30;99.90;;;;;;4783343;29;20047;-68
2022/01/22 09:06:51;;;;;;;12.13;2.90;;;6.30;99.90;;;;;;4784025;29;20054;-68
2022/01/22 09:09:17;;;;;;;12.85;2.55;;;6.30;99.90;;;;;;4783247;29;20050;-68
2022/01/22 09:11:44;;;;;;;16.23;2.50;;;6.30;99.90;;;;;;4783274;29;20412;-68
2022/01/22 09:14:13;;;;;;;11.07;2.63;;;6.30;99.90;;;;;;4783427;29;20451;-68
2022/01/22 09:16:39;;;;;;;9.93;3.47;;;6.30;99.90;;;;;;4785199;29;20138;-68
2022/01/22 09:19:10;;;;;;;15.55;3.35;;;6.30;99.90;;;;;;4783515;29;20043;-68
2022/01/22 09:21:46;;;;;;;14.23;3.80;;;6.50;99.90;;;;;;4784616;29;20465;-68
2022/01/22 09:24:15;;;;;;;10.70;3.40;;;6.30;99.90;;;;;;4783430;29;20054;-68
2022/01/22 09:26:41;;;;;;;14.20;2.60;;;6.40;99.90;;;;;;4769161;29;20576;-68
2022/01/22 09:29:07;;;;;;;11.68;3.13;;;6.40;99.90;;;;;;4784881;29;20122;-68
2022/01/22 09:31:34;;;;;;;14.82;2.75;;;6.40;99.90;;;;;;4785256;29;20066;-69
2022/01/22 09:34:02;;;;;;;13.88;2.70;;;6.40;99.90;;;;;;4784700;29;20099;-69
2022/01/22 09:36:30;;;;;;;14.90;2.83;;;6.40;99.90;;;;;;4783288;29;20047;-69
2022/01/22 09:38:56;;;;;;;12.15;3.10;;;6.40;99.90;;;;;;4784719;29;20035;-69
2022/01/22 09:41:24;;;;;;;10.80;2.55;;;6.40;99.90;;;;;;4782915;29;20043;-69
2022/01/22 09:43:50;;;;;;;17.17;3.63;;;6.40;99.90;;;;;;4782748;29;20096;-68
2022/01/22 09:46:16;;;;;;;16.27;3.20;;;6.50;99.90;;;;;;4783492;29;20130;-69
2022/01/22 09:48:44;;;;;;;13.57;2.97;;;6.40;99.90;;;;;;4785044;29;20139;-69
2022/01/22 09:51:11;;;;;;;11.57;3.35;;;6.40;99.90;;;;;;4783719;29;20043;-69
2022/01/22 09:53:42;;;;;;;11.60;3.65;;;6.50;99.90;;;;;;4783043;29;20497;-68
2022/01/22 09:56:09;;;;;;;12.68;3.78;;;6.50;99.90;;;;;;4783281;29;20055;-69
2022/01/22 09:58:35;;;;;;;13.25;3.60;;;6.50;99.90;;;;;;4783110;29;20056;-69
2022/01/22 10:01:22;;;;;;;12.57;3.72;;;6.50;99.90;;;;;;4768285;29;20039;-68
2022/01/22 10:03:49;;;;;;;13.57;4.32;;;6.50;99.90;;;;;;4781907;29;20046;-68
2022/01/22 10:06:17;;;;;;;18.23;4.78;;;6.50;99.90;;;;;;4782835;29;20075;-69
2022/01/22 10:08:42;;;;;;;18.85;4.38;;;6.50;99.90;;;;;;4783789;29;20047;-69
2022/01/22 10:11:16;;;;;;;16.17;4.35;;;6.50;99.90;;;;;;4783572;29;20055;-69
2022/01/22 10:13:48;;;;;;;15.45;4.68;;;6.60;99.90;;;;;;4782653;29;20645;-69
2022/01/22 10:16:24;;;;;;;11.98;4.45;;;6.60;99.90;;;;;;4782322;29;20063;-69
2022/01/22 10:19:09;;;;;;;;;;;6.60;99.90;;;;;;4783646;29;20439;-68
2022/01/22 10:21:40;;;;;;;16.13;5.80;;;6.60;99.90;;;;;;4797031;29;19968;-68
2022/01/22 10:24:28;;;;;;;14.57;5.35;;;6.60;99.90;;;;;;4782063;29;20047;-69
2022/01/22 10:27:36;;;;;;;19.77;6.35;;;6.70;99.90;;;;;;4782525;29;20070;-68
2022/01/22 10:30:15;;;;;;;21.80;7.68;;;6.70;99.90;;;;;;4782463;29;20053;-68
2022/01/22 10:33:01;;;;;;;21.85;8.20;;;6.70;99.90;;;;;;4782344;29;20051;-68
2022/01/22 10:35:28;;;;;;;26.38;7.40;;;6.70;99.90;;;;;;4782488;29;20047;-69
2022/01/22 10:37:59;;;;;;;21.48;7.95;;;6.80;99.90;;;;;;4782557;29;20085;-68
2022/01/22 10:40:31;;;;;;;19.10;7.32;;;6.70;99.90;;;;;;4781927;29;20043;-68
2022/01/22 10:43:25;;;;;;;18.48;7.43;;;6.80;99.90;;;;;;4781699;29;20078;-69
2022/01/22 10:49:07;;;;;;;22.20;6.05;;;6.80;99.90;;;;;;4781924;29;20066;-69
2022/01/22 10:51:50;;;;;;;19.65;6.38;;;6.90;99.90;;;;;;4778844;29;20114;-69
2022/01/22 10:54:19;;;;;;;20.30;5.80;;;6.90;99.90;;;;;;4782134;29;20586;-69
2022/01/22 10:56:45;;;;;;;13.05;4.78;;;6.90;99.90;;;;;;4779783;29;20553;-69
2022/01/22 10:59:13;;;;;;;17.75;5.32;;;7.00;99.90;;;;;;4780586;29;20043;-69
2022/01/22 11:01:51;;;;;;;13.88;4.53;;;7.00;99.90;;;;;;4780788;29;20054;-69
2022/01/22 11:04:37;;;;;;;14.55;4.15;;;7.00;99.90;;;;;;4781145;29;20048;-69
2022/01/22 11:07:07;;;;;;;12.55;4.18;;;7.10;99.90;;;;;;4783100;29;20055;-69
2022/01/22 11:09:34;;;;;;;18.58;3.75;;;7.10;99.90;;;;;;4781298;29;20063;-69
2022/01/22 11:12:03;;;;;;;17.90;4.13;;;7.10;99.90;;;;;;4783401;29;20409;-69
2022/01/22 11:14:31;;;;;;;16.73;5.45;;;7.10;99.90;;;;;;4781824;29;20063;-69
2022/01/22 11:16:57;;;;;;;23.00;7.63;;;7.10;99.90;;;;;;4796504;29;20086;-69
2022/01/22 11:19:30;;;;;;;20.77;8.40;;;7.10;99.90;;;;;;4766582;29;20056;-69
2022/01/22 11:21:57;;;;;;;30.35;10.25;;;7.10;99.90;;;;;;4781261;29;20051;-69
2022/01/22 11:24:25;;;;;;;27.40;10.45;;;7.10;99.90;;;;;;4780649;29;20515;-69
2022/01/22 11:26:54;;;;;;;29.02;10.25;;;7.10;99.90;;;;;;4781769;29;20077;-69
2022/01/22 11:29:30;;;;;;;25.23;7.97;;;7.10;99.90;;;;;;4780785;29;20051;-69
2022/01/22 11:32:00;;;;;;;25.77;8.55;;;7.10;99.90;;;;;;4779492;29;20050;-69
2022/01/22 11:34:31;;;;;;;22.83;8.70;;;7.10;99.90;;;;;;4780642;29;20050;-69
2022/01/22 11:37:12;;;;;;;25.13;9.05;;;7.10;99.90;;;;;;4781311;29;20504;-69
2022/01/22 11:39:37;;;;;;;27.17;10.88;;;7.10;99.90;;;;;;4781241;29;20090;-69
2022/01/22 11:42:04;;;;;;;29.13;11.00;;;7.10;99.90;;;;;;4781747;29;20043;-70
2022/01/22 11:44:49;;;;;;;29.63;12.25;;;7.10;99.90;;;;;;4780850;29;20039;-69
2022/01/22 11:47:19;;;;;;;34.20;14.15;;;7.10;99.90;;;;;;4780630;29;20493;-69
2022/01/22 11:50:09;;;;;;;31.38;12.82;;;7.10;99.90;;;;;;4783362;29;20050;-69
2022/01/22 11:52:40;;;;;;;31.15;12.13;;;7.10;99.90;;;;;;4781495;29;20630;-69
2022/01/22 11:55:14;;;;;;;30.85;12.80;;;7.10;99.90;;;;;;4782556;29;20035;-69
2022/01/22 11:57:41;;;;;;;25.63;11.82;;;7.10;99.90;;;;;;4781531;29;20929;-69
2022/01/22 12:00:18;;;;;;;24.63;10.55;;;7.10;99.90;;;;;;4781616;29;20054;-69
2022/01/22 12:02:44;;;;;;;18.70;7.93;;;7.10;99.90;;;;;;4782452;29;20079;-69
2022/01/22 12:05:10;;;;;;;20.75;7.45;;;7.10;99.90;;;;;;4782620;29;20051;-69
2022/01/22 12:07:37;;;;;;;19.05;6.75;;;7.10;99.90;;;;;;4782496;29;20062;-69
2022/01/22 12:10:35;;;;;;;15.10;7.72;;;7.10;99.90;;;;;;4782361;29;20122;-69
2022/01/22 12:16:09;;;;;;;10.55;3.45;;;7.20;99.90;;;;;;4782566;29;20170;-69
2022/01/22 12:18:40;;;;;;;13.07;3.83;;;7.20;99.90;;;;;;4781016;29;20520;-69
2022/01/22 12:23:32;;;;;;;10.45;2.90;;;7.30;99.90;;;;;;4781041;29;20043;-69
2022/01/22 12:25:59;;;;;;;9.15;3.63;;;7.20;99.90;;;;;;4784093;29;20054;-69
2022/01/22 12:28:43;;;;;;;12.75;4.00;;;7.30;99.90;;;;;;4780935;29;20044;-69
2022/01/22 12:31:16;;;;;;;11.50;4.82;;;7.30;99.90;;;;;;4781442;29;20039;-69
2022/01/22 12:33:41;;;;;;;16.20;5.55;;;7.30;99.90;;;;;;4783788;29;20074;-70
2022/01/22 12:36:18;;;;;;;13.43;5.22;;;7.30;99.90;;;;;;4783561;29;20086;-69
2022/01/22 12:38:48;;;;;;;15.93;5.85;;;7.30;99.90;;;;;;4783485;29;20465;-69
2022/01/22 12:43:50;;;;;;;14.23;6.03;;;7.30;99.90;;;;;;4784339;29;20378;-69
2022/01/22 12:46:16;;;;;;;17.48;6.20;;;7.30;99.90;;;;;;4786319;29;20051;-69
2022/01/22 12:48:43;;;;;;;20.85;8.13;;;7.30;99.90;;;;;;4782726;29;20416;-69
2022/01/22 12:51:10;;;;;;;17.90;6.72;;;7.30;99.90;;;;;;4786459;29;20504;-69
2022/01/22 12:53:38;;;;;;;12.55;5.65;;;7.30;99.90;;;;;;4785457;29;20047;-70
2022/01/22 12:58:40;;;;;;;17.33;5.70;;;7.30;99.90;;;;;;4785222;29;20116;-69
2022/01/22 13:01:26;;;;;;;15.77;5.43;;;7.30;99.90;;;;;;4785796;29;20118;-69
2022/01/22 13:03:55;;;;;;;15.32;5.45;;;7.30;99.90;;;;;;4784190;29;20039;-69
2022/01/22 13:06:24;;;;;;;18.08;6.22;;;7.30;99.90;;;;;;4797029;29;20058;-68
2022/01/22 13:08:58;;;;;;;15.60;5.18;;;7.30;99.90;;;;;;4783924;29;20109;-68
2022/01/22 13:11:28;;;;;;;12.52;4.15;;;7.30;99.90;;;;;;4783646;29;20047;-68
2022/01/22 13:13:54;;;;;;;17.58;4.00;;;7.30;99.90;;;;;;4783106;29;20047;-68
2022/01/22 13:16:21;;;;;;;12.20;4.55;;;7.40;99.90;;;;;;4782680;29;20406;-68
2022/01/22 13:18:59;;;;;;;13.88;4.22;;;7.30;99.90;;;;;;4782378;29;20515;-68
2022/01/22 13:21:27;;;;;;;12.07;4.00;;;7.40;99.90;;;;;;4783157;29;20036;-68
2022/01/22 13:24:01;;;;;;;12.15;4.10;;;7.40;99.90;;;;;;4783159;29;20089;-68
2022/01/22 13:26:41;;;;;;;11.48;3.42;;;7.40;99.90;;;;;;4782920;29;20130;-68
2022/01/22 13:29:15;;;;;;;17.92;4.47;;;7.60;99.90;;;;;;4783631;29;20051;-68
2022/01/22 13:31:58;;;;;;;12.13;4.10;;;7.40;99.90;;;;;;4784144;29;20051;-68
2022/01/22 13:34:41;;;;;;;12.23;4.20;;;7.40;99.90;;;;;;4784729;29;20051;-68
2022/01/22 13:45:24;;;;;;;14.38;6.28;;;7.40;99.90;;;;;;4783034;29;20622;-68
2022/01/22 13:47:56;;;;;;;12.05;4.00;;;7.40;99.90;;;;;;4783206;29;20039;-68
2022/01/22 13:50:22;;;;;;;13.48;4.88;;;7.40;99.90;;;;;;4784445;29;20051;-68
2022/01/22 13:52:49;;;;;;;13.60;4.38;;;7.40;99.90;;;;;;4783268;29;20481;-68
2022/01/22 13:55:16;;;;;;;13.20;4.30;;;7.30;99.90;;;;;;4783632;29;20054;-67
2022/01/22 13:57:44;;;;;;;12.82;3.88;;;7.30;99.90;;;;;;4784827;29;20442;-68
2022/01/22 14:00:16;;;;;;;15.73;4.63;;;7.30;99.90;;;;;;4782931;29;20061;-68
2022/01/22 14:03:19;;;;;;;13.30;4.85;;;7.30;99.90;;;;;;4783749;29;20051;-68
2022/01/22 14:05:53;;;;;;;14.68;6.47;;;6.80;99.90;;;;;;4783417;29;20095;-68
2022/01/22 14:08:34;;;;;;;18.10;5.15;;;7.20;99.90;;;;;;4783216;29;20162;-68
2022/01/22 14:11:13;;;;;;;13.15;5.05;;;7.10;99.90;;;;;;4783882;29;20051;-68
2022/01/22 14:13:40;;;;;;;14.57;5.45;;;7.10;99.90;;;;;;4783859;29;20678;-67
2022/01/22 14:16:11;;;;;;;10.07;3.17;;;7.00;99.90;;;;;;4782262;29;20059;-67
2022/01/22 14:18:44;;;;;;;8.82;3.08;;;7.00;99.90;;;;;;4783168;29;20047;-67
2022/01/22 14:21:14;;;;;;;13.45;3.60;;;7.00;99.90;;;;;;4783959;29;20069;-67
2022/01/22 14:23:40;;;;;;;11.23;2.92;;;7.00;99.90;;;;;;4783625;29;20047;-67
2022/01/22 14:26:25;;;;;;;14.40;3.47;;;7.00;99.90;;;;;;4782608;29;20085;-67
2022/01/22 14:28:52;;;;;;;13.05;2.75;;;7.10;99.90;;;;;;4783614;29;20079;-67
2022/01/22 14:31:17;;;;;;;11.48;2.95;;;7.00;99.90;;;;;;4782646;29;20117;-67
2022/01/22 14:33:43;;;;;;;10.50;3.15;;;7.10;99.90;;;;;;4784221;29;20047;-67
2022/01/22 14:36:13;;;;;;;15.18;3.75;;;7.00;99.90;;;;;;4783978;29;20031;-67
2022/01/22 14:38:59;;;;;;;11.93;3.70;;;7.00;99.90;;;;;;4782402;29;20198;-67
2022/01/22 14:46:52;;;;;;;12.75;3.80;;;7.00;99.90;;;;;;4782575;29;20016;-68
2022/01/22 14:49:22;;;;;;;13.25;4.65;;;7.10;99.90;;;;;;4782859;29;20151;-67
2022/01/22 14:51:48;;;;;;;14.15;4.50;;;7.00;99.90;;;;;;4782416;29;20078;-67
2022/01/22 14:54:15;;;;;;;9.77;3.80;;;7.10;99.90;;;;;;4780450;29;20523;-68
2022/01/22 14:56:42;;;;;;;14.30;3.70;;;7.10;99.90;;;;;;4782814;29;20393;-67